createdAt,value
2023-01-01T00:00:34.253Z,65.32
2023-01-01T00:05:38.441Z,65.82
2023-01-01T00:10:39.820Z,66.28
2023-01-01T00:15:41.453Z,66.41
2023-01-01T00:20:43.013Z,66.37
2023-01-01T00:25:44.875Z,66.85
2023-01-01T00:30:46.260Z,66.96
2023-01-01T00:35:47.995Z,67.28
2023-01-01T00:40:49.393Z,67.44
2023-01-01T00:45:53.449Z,67.82
2023-01-01T00:50:54.845Z,68.06
2023-01-01T00:55:56.548Z,68.50
2023-01-01T01:00:59.136Z,68.69
2023-01-01T01:06:10.979Z,69.29
2023-01-01T01:11:16.374Z,69.38
2023-01-01T01:16:22.360Z,69.73
2023-01-01T01:21:24.482Z,69.80
2023-01-01T01:26:28.879Z,69.85
2023-01-01T01:31:31.820Z,69.60
2023-01-01T01:36:33.244Z,69.48
2023-01-01T01:41:34.567Z,69.40
2023-01-01T01:46:42.844Z,69.52
2023-01-01T01:51:45.683Z,69.96
2023-01-01T01:56:57.505Z,69.93
2023-01-01T02:01:59.648Z,70.24
2023-01-01T02:07:01.136Z,70.66
2023-01-01T02:12:02.515Z,70.65
2023-01-01T02:17:09.931Z,71.22
2023-01-01T02:22:46.840Z,71.83
2023-01-01T02:28:09.607Z,72.61
2023-01-01T02:33:19.911Z,72.85
2023-01-01T02:38:34.114Z,72.99
2023-01-01T02:43:35.731Z,73.19
2023-01-01T02:48:47.837Z,73.41
2023-01-01T02:54:11.283Z,73.73
2023-01-01T02:59:50.392Z,74.18
2023-01-01T03:05:29.596Z,73.98
2023-01-01T03:11:14.457Z,74.25
2023-01-01T03:16:39.089Z,74.19
2023-01-01T03:21:58.068Z,74.28
2023-01-01T03:27:04.687Z,74.61
2023-01-01T03:32:08.779Z,75.27
2023-01-01T03:37:15.878Z,75.36
2023-01-01T03:42:35.217Z,75.64
2023-01-01T03:47:37.256Z,75.41
2023-01-01T03:53:19.128Z,75.72
2023-01-01T03:58:39.710Z,75.57
2023-01-01T04:03:42.692Z,75.64
2023-01-01T04:08:46.265Z,75.62
2023-01-01T04:13:48.122Z,75.66
2023-01-01T04:18:49.558Z,75.87
2023-01-01T04:23:52.143Z,75.53
2023-01-01T04:28:53.508Z,75.65
2023-01-01T04:33:54.938Z,75.68
2023-01-01T04:38:56.305Z,75.64
2023-01-01T04:43:57.733Z,75.68
2023-01-01T04:48:59.227Z,75.62
2023-01-01T04:54:02.201Z,75.61
2023-01-01T04:59:03.767Z,75.66
2023-01-01T05:04:05.155Z,75.89
2023-01-01T05:09:06.606Z,75.77
2023-01-01T05:14:11.270Z,75.82
2023-01-01T05:19:12.722Z,75.92
2023-01-01T05:24:14.076Z,76.07
2023-01-01T05:29:17.551Z,75.87
2023-01-01T05:34:19.597Z,75.98
2023-01-01T05:39:20.955Z,76.34
2023-01-01T05:44:22.418Z,76.03
2023-01-01T05:49:23.763Z,76.23
2023-01-01T05:54:25.097Z,76.26
2023-01-01T05:59:26.487Z,76.37
2023-01-01T06:04:28.049Z,76.42
2023-01-01T06:09:29.404Z,76.40
2023-01-01T06:14:31.410Z,76.07
2023-01-01T06:19:32.737Z,75.99
2023-01-01T06:24:38.930Z,75.86
2023-01-01T06:29:40.798Z,75.72
2023-01-01T06:34:42.274Z,75.82
2023-01-01T06:39:43.988Z,75.62
2023-01-01T06:44:45.340Z,75.44
2023-01-01T06:49:46.685Z,75.12
2023-01-01T06:54:48.545Z,74.95
2023-01-01T06:59:51.030Z,75.04
2023-01-01T07:04:52.394Z,74.74
2023-01-01T07:09:53.745Z,74.96
2023-01-01T07:14:58.045Z,74.76
2023-01-01T07:19:59.503Z,74.65
2023-01-01T07:25:00.837Z,74.54
2023-01-01T07:30:02.385Z,74.40
2023-01-01T07:35:04.157Z,74.52
2023-01-01T07:40:06.131Z,74.33
2023-01-01T07:45:08.171Z,73.99
2023-01-01T07:50:19.082Z,73.52
2023-01-01T07:55:21.320Z,73.18
2023-01-01T08:00:22.795Z,72.90
2023-01-01T08:05:27.136Z,72.59
2023-01-01T08:10:28.707Z,72.75
2023-01-01T08:15:30.371Z,72.71
2023-01-01T08:20:33.568Z,72.54
2023-01-01T08:25:35.166Z,72.06
2023-01-01T08:30:36.717Z,71.80
2023-01-01T08:35:41.659Z,71.52
2023-01-01T08:40:43.262Z,71.12
2023-01-01T08:45:45.592Z,70.86
2023-01-01T08:50:54.619Z,70.45
2023-01-01T08:56:04.148Z,69.65
2023-01-01T09:01:07.292Z,69.66
2023-01-01T09:06:08.947Z,69.18
2023-01-01T09:11:22.731Z,68.92
2023-01-01T09:16:24.194Z,69.05
2023-01-01T09:21:25.572Z,68.69
2023-01-01T09:26:27.057Z,68.78
2023-01-01T09:31:28.465Z,68.47
2023-01-01T09:36:32.131Z,68.04
2023-01-01T09:41:55.088Z,67.61
2023-01-01T09:47:02.324Z,67.48
2023-01-01T09:52:05.577Z,67.31
2023-01-01T09:57:16.489Z,66.99
2023-01-01T10:02:58.810Z,66.16
2023-01-01T10:08:31.881Z,65.48
2023-01-01T10:13:45.166Z,64.83
2023-01-01T10:18:50.482Z,65.10
2023-01-01T10:24:15.903Z,64.68
2023-01-01T10:29:24.557Z,64.07
2023-01-01T10:34:29.152Z,64.05
2023-01-01T10:39:30.670Z,64.05
2023-01-01T10:44:35.917Z,64.32
2023-01-01T10:49:58.176Z,64.57
2023-01-01T10:55:00.270Z,64.42
2023-01-01T11:00:24.014Z,64.39
2023-01-01T11:05:25.677Z,64.22
2023-01-01T11:10:28.952Z,63.80
2023-01-01T11:15:38.576Z,62.98
2023-01-01T11:20:40.940Z,61.88
2023-01-01T11:26:16.463Z,61.11
2023-01-01T11:31:19.955Z,60.33
2023-01-01T11:36:28.154Z,60.59
2023-01-01T11:41:41.264Z,59.20
2023-01-01T11:46:46.317Z,55.30
2023-01-01T11:51:47.713Z,55.55
2023-01-01T11:56:58.230Z,57.74
2023-01-01T12:02:04.203Z,59.04
2023-01-01T12:07:14.900Z,59.85
2023-01-01T12:12:39.776Z,59.90
2023-01-01T12:17:47.117Z,60.36
2023-01-01T12:22:49.033Z,60.63
2023-01-01T12:28:31.916Z,60.23
2023-01-01T12:33:45.406Z,59.82
2023-01-01T12:39:37.954Z,59.00
2023-01-01T12:45:17.079Z,59.41
2023-01-01T12:50:37.130Z,59.97
2023-01-01T12:55:56.641Z,59.39
2023-01-01T13:01:03.778Z,59.09
2023-01-01T13:06:07.131Z,58.40
2023-01-01T13:11:09.707Z,57.51
2023-01-01T13:16:13.900Z,56.86
2023-01-01T13:21:18.086Z,57.00
2023-01-01T13:26:22.737Z,57.47
2023-01-01T13:31:39.925Z,58.30
2023-01-01T13:36:42.151Z,59.01
2023-01-01T13:41:45.767Z,59.42
2023-01-01T13:47:15.274Z,59.06
2023-01-01T13:52:44.332Z,59.87
2023-01-01T13:58:08.475Z,60.07
2023-01-01T14:03:17.041Z,59.87
2023-01-01T14:08:36.234Z,60.00
2023-01-01T14:13:41.269Z,59.38
2023-01-01T14:18:56.551Z,59.69
2023-01-01T14:24:01.620Z,59.49
2023-01-01T14:29:07.329Z,59.33
2023-01-01T14:34:15.887Z,59.34
2023-01-01T14:39:43.833Z,59.51
2023-01-01T14:44:49.473Z,60.12
2023-01-01T14:49:52.257Z,60.58
2023-01-01T14:54:56.243Z,61.02
2023-01-01T14:59:58.059Z,61.89
2023-01-01T15:05:27.710Z,62.69
2023-01-01T15:10:34.825Z,62.58
2023-01-01T15:15:44.643Z,62.55
2023-01-01T15:20:53.242Z,62.94
2023-01-01T15:25:55.618Z,62.89
2023-01-01T15:30:57.833Z,63.02
2023-01-01T15:36:03.050Z,62.60
2023-01-01T15:41:44.071Z,62.21
2023-01-01T15:46:48.019Z,62.01
2023-01-01T15:51:49.709Z,62.08
2023-01-01T15:56:51.456Z,62.12
2023-01-01T16:02:04.526Z,61.99
2023-01-01T16:07:14.765Z,61.80
2023-01-01T16:12:16.364Z,61.68
2023-01-01T16:17:20.442Z,61.57
2023-01-01T16:22:21.838Z,61.76
2023-01-01T16:27:23.187Z,61.67
2023-01-01T16:32:24.640Z,62.04
2023-01-01T16:37:25.994Z,61.92
2023-01-01T16:42:27.327Z,62.11
2023-01-01T16:47:28.681Z,62.16
2023-01-01T16:52:33.718Z,61.98
2023-01-01T16:57:36.635Z,62.50
2023-01-01T17:02:38.295Z,62.41
2023-01-01T17:07:39.768Z,62.59
2023-01-01T17:12:41.071Z,62.69
2023-01-01T17:17:42.378Z,63.13
2023-01-01T17:22:43.962Z,62.68
2023-01-01T17:27:45.632Z,62.89
2023-01-01T17:32:47.007Z,63.27
2023-01-01T17:37:48.688Z,63.30
2023-01-01T17:42:50.074Z,63.72
2023-01-01T17:47:51.395Z,63.84
2023-01-01T17:52:52.799Z,64.25
2023-01-01T17:57:54.161Z,64.52
2023-01-01T18:02:58.174Z,64.61
2023-01-01T18:07:59.668Z,64.39
2023-01-01T18:13:01.273Z,63.74
2023-01-01T18:18:02.686Z,63.30
2023-01-01T18:23:04.392Z,63.56
2023-01-01T18:28:07.887Z,63.02
2023-01-01T18:33:09.300Z,62.71
2023-01-01T18:38:14.012Z,62.12
2023-01-01T18:43:23.592Z,62.46
2023-01-01T18:48:24.930Z,62.65
2023-01-01T18:53:27.190Z,63.00
2023-01-01T18:58:32.495Z,62.67
2023-01-01T19:03:40.802Z,61.99
2023-01-01T19:08:42.741Z,62.34
2023-01-01T19:13:44.589Z,62.30
2023-01-01T19:18:46.228Z,62.39
2023-01-01T19:23:56.076Z,63.07
2023-01-01T19:29:02.049Z,63.33
2023-01-01T19:34:03.530Z,62.72
2023-01-01T19:39:05.459Z,62.18
2023-01-01T19:44:10.302Z,61.87
2023-01-01T19:49:11.979Z,62.06
2023-01-01T19:54:15.298Z,61.95
2023-01-01T19:59:19.235Z,63.03
2023-01-01T20:04:21.689Z,63.35
2023-01-01T20:09:24.495Z,62.23
2023-01-01T20:14:26.309Z,61.78
2023-01-01T20:19:27.662Z,60.87
2023-01-01T20:24:30.235Z,61.26
2023-01-01T20:29:32.238Z,60.44
2023-01-01T20:34:37.851Z,60.84
2023-01-01T20:39:41.954Z,60.56
2023-01-01T20:44:44.224Z,60.95
2023-01-01T20:49:45.698Z,61.70
2023-01-01T20:54:48.649Z,61.37
2023-01-01T20:59:50.428Z,61.81
2023-01-01T21:04:53.634Z,61.76
2023-01-01T21:09:55.051Z,63.09
2023-01-01T21:14:58.319Z,61.88
2023-01-01T21:20:00.257Z,61.39
2023-01-01T21:25:49.341Z,62.60
2023-01-01T21:30:47.781Z,62.10
2023-01-01T21:35:49.565Z,61.95
2023-01-01T21:40:52.167Z,61.76
2023-01-01T21:45:56.928Z,61.41
2023-01-01T21:51:00.032Z,61.54
2023-01-01T21:56:23.050Z,62.32
2023-01-01T22:01:37.430Z,62.27
2023-01-01T22:06:40.881Z,63.06
2023-01-01T22:11:43.610Z,62.69
2023-01-01T22:16:50.476Z,63.02
2023-01-01T22:21:53.123Z,63.02
2023-01-01T22:26:56.828Z,62.88
2023-01-01T22:32:12.772Z,63.16
2023-01-01T22:37:19.383Z,63.37
2023-01-01T22:42:22.270Z,63.53
2023-01-01T22:47:34.380Z,63.59
2023-01-01T22:52:35.830Z,63.07
2023-01-01T22:57:37.582Z,63.05
2023-01-01T23:02:40.118Z,63.00
2023-01-01T23:07:42.801Z,62.90
2023-01-01T23:12:44.249Z,63.19
2023-01-01T23:17:45.622Z,63.01
2023-01-01T23:22:52.204Z,63.00
2023-01-01T23:27:54.861Z,63.45
2023-01-01T23:32:56.339Z,63.64
2023-01-01T23:37:59.610Z,63.87
2023-01-01T23:43:01.053Z,64.16
2023-01-01T23:48:03.403Z,64.46
2023-01-01T23:53:04.891Z,64.33
2023-01-01T23:58:06.372Z,64.50
